New Germany, Canada
Current Conditions -  °F | °C
As of 8:00 AM on Friday 28 Nov 2014 (Local Time) from CYZX Reporting Station
Snow Showers Snow Showers  
Wind Chill: 21°   Ceiling: 2500
Heat Index: 28°   Visibility: 15mi
Dew Point: 25°   Wind: 7mph
Humidity: 86%   Direction: 90°E
Pressure: 29.98"   Gusts: NA
Location:  44.55°N, 64.72°W
Report Text: CYZX 281200Z 09006KT 15SM -SHSN OVC025 M02/M04 A2998 RMK SC8 WNDY HILL 10008KT PCPN VRY LGT SLP155
Loading
Personal Weather Stations






























Interactive Weather Map New forecast layout! Learn more

10-Day Weather Forecast

Advertisements
Track Severe Weather on mobile